Time;durP1;ratioP1;P1;durP2;ratioP2;P2;SDS_P1;SDS_P2;PMS_P1;PMS_P2;Temp;Humidity;BMP_temperature;BMP_pressure;BME280_temperature;BME280_humidity;BME280_pressure;Samples;Min_cycle;Max_cycle;Signal;HPM_P1;HPM_P2
2021/04/24 00:00:21;;;;;;;10.23;5.50;;;;;;;7.73;28.65;102157.59;4945839;28;99602;-73
2021/04/24 00:02:49;;;;;;;6.97;5.40;;;;;;;7.65;28.80;102156.28;4947061;28;97625;-72
2021/04/24 00:05:19;;;;;;;6.57;5.30;;;;;;;7.68;28.73;102156.44;4944406;28;96656;-74
2021/04/24 00:07:46;;;;;;;11.25;6.00;;;;;;;7.70;28.71;102154.78;4948475;28;96727;-73
2021/04/24 00:10:15;;;;;;;6.95;5.13;;;;;;;7.66;28.62;102155.44;4928993;28;99665;-73
2021/04/24 00:12:43;;;;;;;7.57;5.30;;;;;;;7.62;28.70;102158.72;4940736;28;100305;-73
2021/04/24 00:15:12;;;;;;;7.43;5.18;;;;;;;7.63;28.60;102157.00;4941273;28;97996;-73
2021/04/24 00:17:39;;;;;;;8.50;5.53;;;;;;;7.59;28.62;102150.63;4942226;28;97339;-73
2021/04/24 00:20:08;;;;;;;10.97;6.50;;;;;;;7.62;29.29;102142.84;4943676;28;98296;-72
2021/04/24 00:22:35;;;;;;;8.88;5.45;;;;;;;7.60;29.00;102155.09;4943736;28;97647;-74
2021/04/24 00:25:02;;;;;;;9.00;5.70;;;;;;;7.54;28.99;102154.78;4942655;28;96875;-74
2021/04/24 00:27:30;;;;;;;9.27;6.50;;;;;;;7.50;28.63;102149.22;4922748;28;97002;-74
2021/04/24 00:29:57;;;;;;;14.70;6.97;;;;;;;7.47;29.50;102146.41;4940976;28;99805;-74
2021/04/24 00:32:24;;;;;;;11.32;6.35;;;;;;;7.41;29.27;102146.06;4927294;28;99597;-74
2021/04/24 00:34:51;;;;;;;8.95;5.90;;;;;;;7.31;28.85;102136.63;4943309;28;97274;-73
2021/04/24 00:37:18;;;;;;;9.23;6.07;;;;;;;7.23;28.95;102143.25;4944681;28;97288;-74
2021/04/24 00:39:45;;;;;;;10.80;5.25;;;;;;;7.21;29.13;102142.25;4941757;28;99266;-73
2021/04/24 00:42:12;;;;;;;7.25;5.25;;;;;;;7.15;29.15;102141.91;4944695;28;96707;-74
2021/04/24 00:44:45;;;;;;;6.75;5.18;;;;;;;7.07;29.32;102141.47;4927480;28;96789;-74
2021/04/24 00:47:12;;;;;;;7.15;5.63;;;;;;;7.03;29.34;102143.88;4942811;28;96914;-72
2021/04/24 00:49:39;;;;;;;9.70;5.75;;;;;;;6.96;29.07;102150.53;4943220;28;99663;-73
2021/04/24 00:52:06;;;;;;;10.05;5.75;;;;;;;6.84;29.44;102140.97;4943256;28;97561;-73
2021/04/24 00:54:33;;;;;;;8.45;6.28;;;;;;;6.75;29.11;102143.09;4943266;28;97388;-73
2021/04/24 00:57:01;;;;;;;9.05;5.72;;;;;;;6.66;29.56;102142.56;4941628;28;97602;-73
2021/04/24 00:59:28;;;;;;;10.68;5.80;;;;;;;6.56;29.35;102146.41;4926258;28;98513;-73
2021/04/24 01:01:57;;;;;;;9.65;6.18;;;;;;;6.47;29.46;102147.63;4944261;28;98595;-74
2021/04/24 01:04:24;;;;;;;10.13;6.93;;;;;;;6.37;29.51;102150.50;4958965;28;97156;-73
2021/04/24 01:06:51;;;;;;;14.15;5.80;;;;;;;6.30;29.54;102145.69;4943711;28;97185;-73
2021/04/24 01:09:18;;;;;;;9.48;6.50;;;;;;;6.21;29.53;102144.25;4959199;28;99247;-73
2021/04/24 01:11:45;;;;;;;8.02;5.22;;;;;;;6.17;29.48;102141.34;4925137;28;99283;-73
2021/04/24 01:14:12;;;;;;;10.93;5.75;;;;;;;6.12;29.42;102143.72;4944079;28;96776;-73
2021/04/24 01:16:38;;;;;;;8.15;5.43;;;;;;;6.07;29.68;102141.59;4942965;28;97311;-73
2021/04/24 01:19:06;;;;;;;9.90;5.50;;;;;;;6.02;29.82;102143.97;4940810;28;99495;-73
2021/04/24 01:21:36;;;;;;;11.10;6.25;;;;;;;5.97;29.92;102139.22;4959448;28;99407;-72
2021/04/24 01:24:06;;;;;;;10.68;6.03;;;;;;;5.92;29.79;102141.56;4944590;28;97162;-74
2021/04/24 01:26:34;;;;;;;8.90;5.88;;;;;;;5.84;30.19;102142.84;4941983;28;96825;-73
2021/04/24 01:29:02;;;;;;;8.43;5.72;;;;;;;5.82;30.22;102143.56;4942303;28;98571;-73
2021/04/24 01:31:32;;;;;;;10.68;6.57;;;;;;;5.79;30.15;102144.31;4943013;28;97866;-74
2021/04/24 01:34:00;;;;;;;9.07;6.10;;;;;;;5.73;30.18;102141.28;4941362;28;97131;-73
2021/04/24 01:36:27;;;;;;;13.20;6.85;;;;;;;5.67;30.29;102156.72;4945650;28;96682;-73
2021/04/24 01:38:54;;;;;;;11.93;6.68;;;;;;;5.59;30.39;102144.78;4959185;28;99262;-73
2021/04/24 01:41:22;;;;;;;9.98;6.40;;;;;;;5.55;30.27;102148.06;4962953;28;97360;-73
2021/04/24 01:43:53;;;;;;;13.93;6.30;;;;;;;5.49;30.36;102145.03;4944600;28;97837;-73
2021/04/24 01:46:20;;;;;;;7.78;5.32;;;;;;;5.45;30.49;102143.00;4947203;28;97140;-73
2021/04/24 01:48:48;;;;;;;11.05;5.82;;;;;;;5.41;30.54;102140.09;4945685;28;98579;-73
2021/04/24 01:51:15;;;;;;;11.85;5.72;;;;;;;5.38;30.53;102148.69;4946706;28;97808;-73
2021/04/24 01:53:47;;;;;;;9.02;6.00;;;;;;;5.34;30.66;102138.75;4945228;28;96906;-73
2021/04/24 01:56:45;;;;;;;9.32;5.97;;;;;;;5.30;31.01;102141.13;4945882;28;96889;-73
2021/04/24 01:59:13;;;;;;;8.57;6.00;;;;;;;5.28;30.56;102138.38;4930004;28;97015;-73
2021/04/24 02:01:40;;;;;;;11.18;6.28;;;;;;;5.21;30.85;102137.06;4939317;28;99937;-74
2021/04/24 02:04:07;;;;;;;8.20;6.43;;;;;;;5.11;30.90;102134.66;4945141;28;97184;-73
2021/04/24 02:06:34;;;;;;;11.73;6.00;;;;;;;5.08;31.26;102141.47;4942260;28;97746;-73
2021/04/24 02:09:01;;;;;;;10.63;6.72;;;;;;;4.97;31.00;102139.84;4943284;28;98742;-74
2021/04/24 02:11:28;;;;;;;9.60;6.18;;;;;;;4.90;30.81;102138.50;4943386;28;98464;-73
2021/04/24 02:13:56;;;;;;;10.10;7.00;;;;;;;4.83;31.46;102132.72;4939925;28;96969;-71
2021/04/24 02:16:23;;;;;;;7.97;6.03;;;;;;;4.79;31.04;102134.25;4942453;28;96723;-75
2021/04/24 02:18:50;;;;;;;13.50;6.68;;;;;;;4.74;31.35;102143.59;4942376;28;101410;-73
2021/04/24 02:21:17;;;;;;;11.02;6.63;;;;;;;4.70;31.62;102148.56;4943865;28;99335;-73
2021/04/24 02:23:44;;;;;;;14.30;6.38;;;;;;;4.65;31.54;102142.06;4945373;28;96813;-73
2021/04/24 02:26:12;;;;;;;14.80;7.32;;;;;;;4.60;31.40;102147.03;4945849;28;96931;-72
2021/04/24 02:28:39;;;;;;;9.95;6.47;;;;;;;4.51;31.61;102150.78;4944038;28;99705;-72
2021/04/24 02:31:07;;;;;;;10.68;6.00;;;;;;;4.45;31.72;102150.34;4943094;28;100721;-72
2021/04/24 02:33:34;;;;;;;11.23;6.35;;;;;;;4.44;32.13;102145.91;4945678;28;96659;-75
2021/04/24 02:36:02;;;;;;;11.85;6.65;;;;;;;4.48;32.02;102151.47;4945454;28;96840;-74
2021/04/24 02:38:31;;;;;;;11.30;6.07;;;;;;;4.48;31.96;102151.47;4943203;28;96697;-73
2021/04/24 02:41:00;;;;;;;14.40;8.20;;;;;;;4.45;31.82;102147.72;4945304;28;98650;-73
2021/04/24 02:43:28;;;;;;;8.98;5.85;;;;;;;4.40;32.16;102152.69;4944409;28;97027;-73
2021/04/24 02:45:55;;;;;;;10.70;7.22;;;;;;;4.36;32.17;102149.72;4945699;28;96981;-73
2021/04/24 02:48:23;;;;;;;11.43;7.38;;;;;;;4.34;31.85;102159.25;4942619;28;100015;-73
2021/04/24 02:50:50;;;;;;;12.32;7.88;;;;;;;4.33;32.21;102144.25;4926477;28;98388;-73
2021/04/24 02:53:17;;;;;;;9.95;6.63;;;;;;;4.35;32.06;102147.91;4928247;28;96911;-73
2021/04/24 02:55:44;;;;;;;10.60;6.60;;;;;;;4.37;31.97;102152.47;4944957;28;96967;-73
2021/04/24 02:58:11;;;;;;;10.95;6.07;;;;;;;4.36;32.05;102152.38;4942405;28;100099;-73
2021/04/24 03:00:38;;;;;;;9.00;7.15;;;;;;;4.34;32.34;102151.34;4944182;28;99812;-74
2021/04/24 03:03:06;;;;;;;11.98;6.93;;;;;;;4.34;32.20;102140.81;4944289;28;96804;-73
2021/04/24 03:05:35;;;;;;;14.07;7.65;;;;;;;4.31;32.09;102151.16;4944293;28;96755;-72
2021/04/24 03:08:04;;;;;;;14.13;7.05;;;;;;;4.27;32.02;102151.75;4943123;28;97465;-75
2021/04/24 03:10:31;;;;;;;12.55;7.20;;;;;;;4.28;32.41;102153.59;4942972;28;97811;-73
2021/04/24 03:12:58;;;;;;;11.43;6.70;;;;;;;4.24;32.39;102144.56;4944635;28;96782;-73
2021/04/24 03:15:25;;;;;;;11.73;7.43;;;;;;;4.17;32.71;102137.06;4944035;28;96777;-73
2021/04/24 03:17:53;;;;;;;17.25;7.28;;;;;;;4.16;32.51;102146.66;4938764;28;99617;-73
2021/04/24 03:20:21;;;;;;;12.52;7.45;;;;;;;4.18;32.41;102145.06;4940240;28;97251;-74
2021/04/24 03:22:49;;;;;;;13.95;7.28;;;;;;;4.17;32.38;102147.59;4940750;28;96939;-73
2021/04/24 03:25:17;;;;;;;11.13;7.18;;;;;;;4.13;32.49;102148.19;4939237;28;97534;-73
2021/04/24 03:27:44;;;;;;;15.38;7.28;;;;;;;4.14;32.86;102157.91;4943466;28;96928;-73
2021/04/24 03:30:13;;;;;;;13.75;7.90;;;;;;;4.11;32.95;102149.78;4943406;28;96717;-73
2021/04/24 03:32:40;;;;;;;13.13;6.72;;;;;;;4.01;32.98;102148.25;4943568;28;97346;-73
2021/04/24 03:35:09;;;;;;;11.18;7.13;;;;;;;3.99;33.04;102152.50;4925883;28;96828;-73
2021/04/24 03:37:36;;;;;;;10.75;7.75;;;;;;;3.95;33.29;102153.06;4942988;28;98904;-73
2021/04/24 03:40:06;;;;;;;13.30;7.72;;;;;;;3.94;33.00;102151.25;4943809;28;100553;-72
2021/04/24 03:42:33;;;;;;;10.70;7.72;;;;;;;3.95;33.04;102158.34;4960237;28;96882;-73
2021/04/24 03:45:00;;;;;;;10.35;7.45;;;;;;;3.97;33.39;102153.22;4943741;28;97094;-73
2021/04/24 03:47:28;;;;;;;12.40;8.30;;;;;;;4.00;32.99;102154.34;4949072;28;100034;-73
2021/04/24 03:49:55;;;;;;;16.13;7.60;;;;;;;4.02;33.26;102157.97;4923931;28;97976;-73
2021/04/24 03:52:22;;;;;;;15.10;7.32;;;;;;;4.03;33.46;102158.88;4941548;28;96721;-73
2021/04/24 03:54:48;;;;;;;12.40;7.50;;;;;;;4.04;33.33;102160.72;4942567;28;97449;-73
2021/04/24 03:57:16;;;;;;;15.35;7.85;;;;;;;4.05;32.86;102168.72;4926491;28;99635;-71
2021/04/24 03:59:43;;;;;;;17.02;7.45;;;;;;;4.01;33.18;102165.75;4942493;28;101143;-73
2021/04/24 04:02:10;;;;;;;11.35;7.35;;;;;;;4.03;33.30;102162.44;4936088;28;96904;-72
2021/04/24 04:04:40;;;;;;;16.33;8.55;;;;;;;4.06;33.25;102169.66;4942154;28;96867;-71
2021/04/24 04:07:07;;;;;;;16.85;7.90;;;;;;;4.07;33.69;102171.47;4923385;28;99589;-71
2021/04/24 04:09:34;;;;;;;16.00;7.93;;;;;;;4.07;33.34;102166.19;4939912;28;97807;-73
2021/04/24 04:12:05;;;;;;;11.73;7.70;;;;;;;4.11;33.52;102173.50;4958202;28;96741;-72
2021/04/24 04:14:33;;;;;;;14.80;7.75;;;;;;;4.14;33.35;102172.00;4938944;28;96949;-73
2021/04/24 04:17:00;;;;;;;15.68;8.13;;;;;;;4.18;33.60;102174.03;4940197;28;98425;-72
2021/04/24 04:19:27;;;;;;;16.50;8.90;;;;;;;4.16;33.47;102175.66;4939502;28;98958;-72
2021/04/24 04:21:56;;;;;;;15.13;7.63;;;;;;;4.19;33.28;102172.28;4941184;28;96804;-73
2021/04/24 04:24:23;;;;;;;13.02;8.10;;;;;;;4.17;33.55;102182.72;4943542;28;97122;-74
2021/04/24 04:26:50;;;;;;;17.15;8.55;;;;;;;4.12;33.40;102175.31;4926512;28;98553;-73
2021/04/24 04:29:17;;;;;;;15.60;7.97;;;;;;;4.10;33.83;102172.59;4942998;28;97681;-72
2021/04/24 04:31:45;;;;;;;14.75;7.82;;;;;;;4.08;33.77;102171.56;4942469;28;96825;-73
2021/04/24 04:34:12;;;;;;;16.15;8.57;;;;;;;4.02;33.76;102164.97;4959264;28;96812;-71
2021/04/24 04:36:39;;;;;;;14.70;7.90;;;;;;;3.94;33.90;102174.97;4942070;28;97799;-74
2021/04/24 04:39:06;;;;;;;17.80;8.07;;;;;;;3.91;33.87;102166.88;4939388;28;97890;-73
2021/04/24 04:41:33;;;;;;;17.40;8.63;;;;;;;3.91;33.65;102173.84;4927408;28;97464;-73
2021/04/24 04:43:59;;;;;;;18.20;8.82;;;;;;;3.92;34.32;102176.56;4944194;28;97436;-73
2021/04/24 04:46:27;;;;;;;16.85;8.90;;;;;;;3.91;33.99;102169.50;4941519;28;100646;-73
2021/04/24 04:48:59;;;;;;;12.65;8.35;;;;;;;3.89;34.19;102180.72;4940178;28;100927;-73
2021/04/24 04:51:27;;;;;;;16.70;8.70;;;;;;;3.86;34.08;102175.25;4940085;28;97102;-72
2021/04/24 04:53:53;;;;;;;14.52;8.55;;;;;;;3.89;34.24;102176.38;4941635;28;97198;-72
2021/04/24 04:56:21;;;;;;;19.33;8.82;;;;;;;3.87;33.99;102172.72;4923926;28;99349;-72
2021/04/24 04:58:48;;;;;;;13.10;8.60;;;;;;;3.90;33.98;102175.56;4938978;28;100042;-72
2021/04/24 05:01:18;;;;;;;19.10;8.98;;;;;;;3.91;34.18;102181.75;4940755;28;96841;-72
2021/04/24 05:03:45;;;;;;;15.80;8.52;;;;;;;3.92;34.39;102176.56;4941050;28;97301;-73
2021/04/24 05:06:13;;;;;;;18.30;8.65;;;;;;;3.96;34.07;102177.69;4940371;28;101118;-72
2021/04/24 05:08:40;;;;;;;15.60;8.75;;;;;;;3.95;34.05;102175.88;4939249;28;97758;-72
2021/04/24 05:11:07;;;;;;;12.32;8.30;;;;;;;3.95;34.12;102179.41;4940310;28;97441;-72
2021/04/24 05:13:34;;;;;;;15.55;8.50;;;;;;;3.95;34.37;102175.88;4940464;28;96987;-72
2021/04/24 05:16:02;;;;;;;15.93;8.02;;;;;;;4.00;34.36;102185.94;4928239;28;100154;-73
2021/04/24 05:18:29;;;;;;;16.15;8.23;;;;;;;4.02;34.59;102184.28;4946380;28;97892;-73
2021/04/24 05:20:56;;;;;;;15.73;9.05;;;;;;;4.04;34.35;102190.59;4943126;28;96892;-72
2021/04/24 05:23:24;;;;;;;16.98;9.43;;;;;;;4.07;34.85;102177.66;4944541;28;97240;-73
2021/04/24 05:25:51;;;;;;;17.33;9.60;;;;;;;4.07;34.79;102185.56;4944562;28;100789;-73
2021/04/24 05:28:18;;;;;;;14.18;8.65;;;;;;;4.12;34.62;102186.78;4944336;28;99195;-72
2021/04/24 05:30:45;;;;;;;13.82;9.38;;;;;;;4.14;34.88;102179.91;4943621;28;96843;-72
2021/04/24 05:33:11;;;;;;;14.50;8.40;;;;;;;4.17;34.66;102185.38;4943199;28;96837;-73
2021/04/24 05:35:38;;;;;;;13.73;8.40;;;;;;;4.21;34.80;102178.59;4943933;28;99685;-74
2021/04/24 05:38:05;;;;;;;14.70;9.20;;;;;;;4.27;34.80;102175.47;4944941;28;96621;-73
2021/04/24 05:40:34;;;;;;;13.50;8.60;;;;;;;4.31;34.43;102185.41;4943168;28;97281;-74
2021/04/24 05:43:02;;;;;;;14.95;8.60;;;;;;;4.37;34.38;102186.72;4944210;28;97049;-73
2021/04/24 05:45:28;;;;;;;14.05;8.23;;;;;;;4.42;34.87;102189.69;4926624;28;100107;-73
2021/04/24 05:47:56;;;;;;;17.38;9.70;;;;;;;4.50;34.52;102186.75;4941018;28;98217;-73
2021/04/24 05:50:24;;;;;;;12.52;8.05;;;;;;;4.57;34.69;102185.47;4927591;28;96735;-73
2021/04/24 05:52:53;;;;;;;14.85;8.88;;;;;;;4.64;34.54;102191.25;4943795;28;96897;-73
2021/04/24 05:55:20;;;;;;;11.48;7.50;;;;;;;4.69;34.75;102188.91;4945028;28;97914;-73
2021/04/24 05:57:48;;;;;;;17.05;8.43;;;;;;;4.71;34.74;102182.03;4943693;28;98508;-73
2021/04/24 06:00:17;;;;;;;20.35;8.70;;;;;;;4.78;34.81;102189.53;4943843;28;97441;-73
2021/04/24 06:02:45;;;;;;;21.70;8.75;;;;;;;4.82;34.78;102194.19;4944480;28;97202;-73
2021/04/24 06:05:12;;;;;;;15.68;8.18;;;;;;;4.85;34.94;102191.75;4942243;28;98840;-73
2021/04/24 06:07:43;;;;;;;22.02;10.15;;;;;;;4.97;34.71;102189.94;4946307;28;97715;-73
2021/04/24 06:10:12;;;;;;;15.82;8.15;;;;;;;5.01;34.44;102187.59;4947022;28;97616;-73
2021/04/24 06:12:40;;;;;;;15.02;7.97;;;;;;;5.09;34.67;102185.50;4945678;28;96912;-73
2021/04/24 06:15:10;;;;;;;12.43;7.63;;;;;;;5.17;34.89;102193.09;4944803;28;97729;-74
2021/04/24 06:17:37;;;;;;;15.15;9.05;;;;;;;5.26;34.57;102191.88;4959343;28;100129;-74
2021/04/24 06:20:06;;;;;;;11.88;7.63;;;;;;;5.37;34.53;102207.59;4958082;28;96688;-73
2021/04/24 06:22:33;;;;;;;13.48;7.32;;;;;;;5.38;34.61;102204.13;4948299;28;96839;-74
2021/04/24 06:25:00;;;;;;;12.88;7.22;;;;;;;5.41;34.44;102199.03;4947339;28;97082;-73
2021/04/24 06:27:28;;;;;;;11.00;7.75;;;;;;;5.46;34.69;102202.00;4947062;28;98576;-74
2021/04/24 06:29:55;;;;;;;12.57;6.63;;;;;;;5.46;34.61;102200.28;4946627;28;96856;-74
2021/04/24 06:32:22;;;;;;;15.57;7.32;;;;;;;5.50;34.88;102202.31;4930180;28;97022;-73
2021/04/24 06:34:49;;;;;;;14.75;7.07;;;;;;;5.57;34.90;102203.59;4946659;28;99359;-74
2021/04/24 06:37:16;;;;;;;10.23;7.38;;;;;;;5.65;34.68;102199.72;4949723;28;97307;-73
2021/04/24 06:39:43;;;;;;;14.60;7.75;;;;;;;5.76;34.54;102194.28;4946794;28;96888;-73
2021/04/24 06:42:14;;;;;;;11.63;7.20;;;;;;;5.84;34.45;102192.13;4949161;28;96926;-72
2021/04/24 06:44:41;;;;;;;13.65;7.28;;;;;;;5.92;34.40;102202.34;4948141;28;99030;-73
2021/04/24 06:47:08;;;;;;;25.55;11.30;;;;;;;5.98;34.56;102197.44;4947048;28;96895;-74
2021/04/24 06:49:37;;;;;;;16.25;8.20;;;;;;;6.02;34.47;102199.47;4945988;28;97306;-74
2021/04/24 06:52:04;;;;;;;11.25;7.03;;;;;;;6.10;34.22;102192.03;4945983;28;97002;-75
2021/04/24 06:54:31;;;;;;;12.05;7.20;;;;;;;6.15;34.45;102195.84;4929701;28;99752;-74
2021/04/24 06:56:58;;;;;;;11.15;7.03;;;;;;;6.23;34.10;102200.78;4940169;28;98993;-74
2021/04/24 06:59:26;;;;;;;11.48;6.97;;;;;;;6.31;34.22;102192.44;4942286;28;96904;-73
2021/04/24 07:01:53;;;;;;;12.45;8.13;;;;;;;6.42;34.32;102192.28;4942206;28;96789;-76
2021/04/24 07:04:20;;;;;;;21.25;9.02;;;;;;;6.47;34.32;102189.91;4959701;28;97143;-74
2021/04/24 07:06:47;;;;;;;13.68;7.93;;;;;;;6.48;34.08;102190.00;4945774;28;96801;-74
2021/04/24 07:09:14;;;;;;;11.57;7.60;;;;;;;6.57;34.23;102184.34;4942686;28;96808;-73
2021/04/24 07:11:41;;;;;;;13.70;7.35;;;;;;;6.64;34.01;102182.16;4942400;28;97204;-73
2021/04/24 07:14:08;;;;;;;12.48;7.65;;;;;;;6.70;33.99;102185.16;4944407;28;97075;-73
2021/04/24 07:16:35;;;;;;;10.23;6.45;;;;;;;6.74;34.19;102176.59;4944042;28;97923;-74
2021/04/24 07:19:03;;;;;;;12.00;8.18;;;;;;;6.76;34.09;102181.97;4943624;28;96794;-74
2021/04/24 07:21:30;;;;;;;11.93;6.22;;;;;;;6.76;34.39;102179.34;4945083;28;96961;-74
2021/04/24 07:23:58;;;;;;;7.45;5.60;;;;;;;6.85;34.17;102177.22;4944183;28;98738;-73
2021/04/24 07:26:25;;;;;;;7.72;5.38;;;;;;;6.96;33.98;102181.41;4958877;28;100866;-73
2021/04/24 07:28:52;;;;;;;9.27;5.90;;;;;;;7.07;33.81;102182.94;4945476;28;96944;-74
2021/04/24 07:31:20;;;;;;;8.68;5.78;;;;;;;7.14;33.95;102174.50;4943347;28;96842;-74
2021/04/24 07:33:47;;;;;;;8.25;5.50;;;;;;;7.25;33.65;102178.69;4944760;28;98018;-75
2021/04/24 07:36:15;;;;;;;6.40;5.70;;;;;;;7.30;33.41;102173.63;4944059;28;98986;-74
2021/04/24 07:38:41;;;;;;;7.50;5.53;;;;;;;7.31;33.35;102173.72;4943413;28;97003;-74
2021/04/24 07:41:09;;;;;;;8.85;4.90;;;;;;;7.35;33.18;102175.72;4928571;28;97012;-73
2021/04/24 07:43:36;;;;;;;9.23;5.25;;;;;;;7.41;33.05;102178.75;4944520;28;98373;-73
2021/04/24 07:46:03;;;;;;;6.28;5.05;;;;;;;7.51;33.14;102170.47;4945448;28;97628;-73
2021/04/24 07:48:31;;;;;;;6.88;4.90;;;;;;;7.54;33.13;102165.38;4943957;28;97068;-73
2021/04/24 07:50:58;;;;;;;18.00;11.65;;;;;;;7.64;32.80;102169.41;4943947;28;96720;-74
2021/04/24 07:53:25;;;;;;;9.25;6.05;;;;;;;7.72;33.05;102163.72;4942356;28;99800;-73
2021/04/24 07:55:52;;;;;;;10.45;5.38;;;;;;;7.83;32.66;102162.56;4960325;28;99399;-74
2021/04/24 07:58:23;;;;;;;6.78;4.93;;;;;;;7.92;32.74;102162.16;4943296;28;97163;-74
2021/04/24 08:00:50;;;;;;;4.70;4.30;;;;;;;7.95;32.66;102168.53;4944578;28;96925;-74
2021/04/24 08:03:16;;;;;;;4.25;3.90;;;;;;;7.86;32.55;102173.31;4945712;28;96813;-75
2021/04/24 08:05:43;;;;;;;6.35;4.00;;;;;;;7.75;33.14;102163.88;4943288;28;99855;-73
2021/04/24 08:08:10;;;;;;;6.70;4.30;;;;;;;7.73;32.61;102168.19;4924270;28;97569;-73
2021/04/24 08:10:40;;;;;;;8.43;4.60;;;;;;;7.72;32.91;102168.09;4957351;28;96867;-75
2021/04/24 08:13:08;;;;;;;7.68;4.85;;;;;;;7.82;32.45;102165.16;4943649;28;97664;-72
2021/04/24 08:15:35;;;;;;;7.90;5.63;;;;;;;7.92;32.67;102165.72;4938229;28;97085;-73
2021/04/24 08:18:03;;;;;;;4.28;3.83;;;;;;;7.96;32.58;102169.44;4923087;28;96995;-73
2021/04/24 08:20:29;;;;;;;6.00;3.92;;;;;;;7.95;32.52;102167.59;4937181;28;96797;-74
2021/04/24 08:22:57;;;;;;;4.32;3.70;;;;;;;7.95;32.23;102167.59;4932982;28;98551;-73
2021/04/24 08:25:24;;;;;;;5.90;4.07;;;;;;;7.93;32.28;102175.47;4937481;28;99341;-74
2021/04/24 08:27:51;;;;;;;7.85;4.45;;;;;;;7.95;32.54;102179.13;4937234;28;96878;-74
2021/04/24 08:30:19;;;;;;;8.00;4.25;;;;;;;7.95;32.40;102179.13;4934430;28;97742;-73
2021/04/24 08:32:47;;;;;;;4.28;3.72;;;;;;;8.01;32.19;102171.50;4955855;28;99444;-73
2021/04/24 08:35:15;;;;;;;6.47;4.30;;;;;;;8.12;32.03;102173.00;4940273;28;97550;-74
2021/04/24 08:37:44;;;;;;;6.50;4.07;;;;;;;8.15;32.33;102170.50;4941111;28;96957;-75
2021/04/24 08:40:30;;;;;;;6.55;4.20;;;;;;;8.17;31.97;102173.22;4954877;28;97101;-73
2021/04/24 08:43:00;;;;;;;5.03;4.20;;;;;;;8.18;32.07;102178.59;4938074;28;99291;-74
2021/04/24 08:45:28;;;;;;;6.00;3.95;;;;;;;8.19;32.03;102168.91;4940160;28;98812;-74
2021/04/24 08:47:56;;;;;;;4.25;3.95;;;;;;;8.26;31.77;102170.16;4940198;28;96988;-75
2021/04/24 08:50:25;;;;;;;6.18;4.22;;;;;;;8.29;31.94;102167.66;4936709;28;97303;-75
2021/04/24 08:52:53;;;;;;;7.00;4.45;;;;;;;8.37;31.78;102174.28;4938975;28;99923;-74
2021/04/24 08:55:23;;;;;;;5.13;4.70;;;;;;;8.45;31.52;102168.53;4938014;28;98925;-76
2021/04/24 08:57:50;;;;;;;5.18;4.15;;;;;;;8.51;31.58;102163.59;4934686;28;97015;-75
2021/04/24 09:00:22;;;;;;;8.45;3.85;;;;;;;8.59;31.50;102171.91;4933048;28;97001;-74
2021/04/24 09:02:49;;;;;;;7.32;4.93;;;;;;;8.64;31.20;102170.44;4934924;28;99249;-73
2021/04/24 09:05:19;;;;;;;4.00;3.70;;;;;;;8.68;31.54;102167.06;4923033;28;99258;-74
2021/04/24 09:07:46;;;;;;;5.38;3.97;;;;;;;8.67;31.33;102162.63;4958205;28;97057;-74
2021/04/24 09:10:16;;;;;;;8.32;4.40;;;;;;;8.72;31.28;102166.41;4939912;28;97083;-74
2021/04/24 09:12:45;;;;;;;4.80;4.00;;;;;;;8.75;31.32;102169.22;4943418;28;96886;-74
2021/04/24 09:15:16;;;;;;;6.15;4.72;;;;;;;8.77;31.11;102172.88;4942047;28;99594;-74
2021/04/24 09:17:52;;;;;;;4.97;4.47;;;;;;;8.73;31.52;102174.44;4939683;28;97417;-75
2021/04/24 09:20:21;;;;;;;5.38;4.43;;;;;;;8.74;31.29;102170.06;4923418;28;96992;-75
2021/04/24 09:23:03;;;;;;;7.15;4.28;;;;;;;8.70;31.72;102176.03;4940364;28;96885;-76
2021/04/24 09:25:37;;;;;;;11.13;5.88;;;;;;;8.71;31.55;102176.13;4926499;28;98231;-77
2021/04/24 09:28:06;;;;;;;18.42;11.07;;;;;;;8.73;31.43;102170.91;4940003;28;96914;-75
2021/04/24 09:30:35;;;;;;;9.43;6.03;;;;;;;8.76;31.44;102182.56;4939370;28;96779;-74
2021/04/24 09:33:11;;;;;;;7.07;4.82;;;;;;;8.72;31.22;102175.28;4937349;28;99560;-74
2021/04/24 09:35:43;;;;;;;8.80;6.72;;;;;;;8.72;31.37;102180.59;4941681;28;98612;-75
2021/04/24 09:38:16;;;;;;;6.15;4.57;;;;;;;8.71;31.15;102178.78;4941864;28;96742;-77
2021/04/24 09:40:43;;;;;;;13.40;6.78;;;;;;;8.68;31.29;102178.59;4942955;28;96914;-74
2021/04/24 09:43:10;;;;;;;7.30;4.70;;;;;;;8.68;31.51;102198.91;4941807;28;99868;-75
2021/04/24 09:45:42;;;;;;;5.53;3.92;;;;;;;8.61;31.27;102187.09;4945083;28;98717;-76
2021/04/24 09:48:23;;;;;;;4.95;4.45;;;;;;;8.56;31.38;102182.38;4937638;28;97651;-73
2021/04/24 09:50:51;;;;;;;5.00;4.50;;;;;;;8.57;31.36;102179.81;4934200;28;96870;-73
2021/04/24 09:53:20;;;;;;;4.97;4.30;;;;;;;8.60;31.38;102176.41;4941183;28;97701;-74
2021/04/24 09:55:49;;;;;;;6.53;5.18;;;;;;;8.61;31.39;102175.56;4924871;28;98904;-76
2021/04/24 09:58:27;;;;;;;8.10;4.05;;;;;;;8.55;31.08;102172.63;4925562;28;97056;-74
2021/04/24 10:00:57;;;;;;;6.38;4.05;;;;;;;8.50;31.35;102182.06;4943412;28;97446;-74
2021/04/24 10:03:34;;;;;;;4.13;3.58;;;;;;;8.40;30.56;102175.34;4948613;28;96814;-74
2021/04/24 10:06:29;;;;;;;4.63;4.10;;;;;;;8.41;30.55;102163.91;4946027;28;99941;-75
2021/04/24 10:09:17;;;;;;;4.55;3.95;;;;;;;8.47;30.94;102168.59;4948856;28;96912;-74
2021/04/24 10:11:46;;;;;;;4.68;3.72;;;;;;;8.50;30.96;102164.41;4947058;28;96786;-73
2021/04/24 10:14:14;;;;;;;4.63;3.83;;;;;;;8.62;30.90;102169.44;4943615;28;99330;-75
2021/04/24 10:16:43;;;;;;;5.20;4.70;;;;;;;8.73;30.91;102163.81;4942779;28;97752;-74
2021/04/24 10:19:12;;;;;;;4.28;3.88;;;;;;;8.88;30.50;102156.63;4942364;28;97348;-74
2021/04/24 10:21:44;;;;;;;10.65;3.90;;;;;;;8.93;30.38;102154.22;4942407;28;96821;-75
2021/04/24 10:24:12;;;;;;;5.78;4.05;;;;;;;9.03;30.23;102153.81;4946726;28;99654;-74
2021/04/24 10:26:42;;;;;;;5.45;4.07;;;;;;;9.07;30.22;102159.38;4945051;28;96825;-74
2021/04/24 10:29:09;;;;;;;4.10;3.45;;;;;;;9.08;30.05;102153.22;4944425;28;97214;-75
2021/04/24 10:31:38;;;;;;;6.60;4.55;;;;;;;9.12;30.09;102151.63;4930194;28;97249;-74
2021/04/24 10:34:06;;;;;;;5.25;4.57;;;;;;;9.16;29.99;102149.19;4928305;28;99824;-74
2021/04/24 10:36:36;;;;;;;7.22;4.25;;;;;;;9.25;30.04;102146.06;4944404;28;99754;-73
2021/04/24 10:39:06;;;;;;;4.57;4.10;;;;;;;9.28;29.89;102142.66;4926135;28;97230;-73
2021/04/24 10:41:36;;;;;;;4.93;4.20;;;;;;;9.38;29.88;102140.50;4947536;28;96814;-74
2021/04/24 10:44:05;;;;;;;4.70;4.20;;;;;;;9.57;29.66;102139.66;4941651;28;98471;-75
2021/04/24 10:46:35;;;;;;;4.63;4.18;;;;;;;9.65;29.45;102138.25;4944193;28;96894;-76
2021/04/24 10:49:21;;;;;;;4.90;4.10;;;;;;;9.58;29.27;102147.72;4947896;28;96601;-75
2021/04/24 10:52:05;;;;;;;4.25;3.85;;;;;;;9.55;29.45;102149.31;4928126;28;97687;-74
2021/04/24 10:54:34;;;;;;;5.00;4.50;;;;;;;9.56;29.64;102138.75;4941662;28;100162;-75
2021/04/24 10:57:23;;;;;;;6.15;4.47;;;;;;;9.65;29.80;102139.19;4947413;28;97582;-74
2021/04/24 10:59:54;;;;;;;10.48;4.13;;;;;;;9.76;29.46;102131.69;4942859;28;96795;-72
2021/04/24 11:02:21;;;;;;;7.50;4.03;;;;;;;9.84;29.47;102139.19;4942600;28;96900;-74
2021/04/24 11:04:49;;;;;;;7.30;4.60;;;;;;;9.81;29.49;102133.72;4938292;28;97788;-74
2021/04/24 11:07:18;;;;;;;5.40;4.45;;;;;;;9.85;29.59;102130.38;4940384;28;100670;-74
2021/04/24 11:09:52;;;;;;;5.53;4.10;;;;;;;9.93;29.28;102120.06;4935422;28;97532;-74
2021/04/24 11:12:19;;;;;;;5.68;4.28;;;;;;;9.99;29.30;102121.25;4941431;28;97234;-73
2021/04/24 11:14:46;;;;;;;6.72;3.90;;;;;;;9.99;29.28;102117.72;4942380;28;97779;-74
2021/04/24 11:17:13;;;;;;;4.75;3.50;;;;;;;9.99;29.23;102117.72;4943529;28;97389;-74
2021/04/24 11:19:41;;;;;;;6.78;3.63;;;;;;;10.05;29.06;102118.88;4941193;28;97447;-74
2021/04/24 11:22:32;;;;;;;7.45;4.30;;;;;;;10.10;28.93;102119.97;4940589;28;96860;-75
2021/04/24 11:25:28;;;;;;;4.57;4.20;;;;;;;10.14;28.68;102108.63;4906938;28;101078;-73
2021/04/24 11:28:03;;;;;;;6.40;4.22;;;;;;;10.11;29.00;102103.19;4940326;28;98523;-73
2021/04/24 11:30:53;;;;;;;5.88;5.03;;;;;;;10.20;28.40;102100.94;4955557;28;97807;-74
2021/04/24 11:33:31;;;;;;;5.47;4.68;;;;;;;10.41;28.17;102097.38;4941571;28;96852;-74
2021/04/24 11:36:19;;;;;;;5.50;3.95;;;;;;;10.55;28.04;102099.81;4944815;28;97696;-75